Strona główna
METAR-TAF:

METAR-TAF

Lotnisko :

Lafayette, Indiana, Stany Zjednoczone

Szerokość geograficzna: 40-24-45N, Długość geograficzna: 086-56-51W, wysokość: 184 m

Aktualna obserwacja pogody

Raport powstał 22 minut temu, godzina 04:54 UTC
Wiatr 6 kt od wschód
Temperatura 13°C
Wilgotność 62%
Ciśnienie 1025 hPa
Widzialność: 16.1 km
bezchmurnie

METAR: KLAF 010454Z AUTO 08006KT 10SM CLR 13/06 A3028 RMK AO2 SLP251 T01330056 402390111

czas: 01:16 (05:16 UTC)

Prognoza

Raport powstał 5 godziny i 56 minut temu, godzina 23:20 UTC
Prognoza ważna od 01 godzina 00 UTC do 01 godzina 24 UTC
Wiatr 3 kt z kierunków zmiennych
Widzialność: 10 km
Mało chmury na wysokości 25000 ft
Od 01 godzina 1200 UTC
Wiatr 5 kt od południe
Widzialność: 10 km
Mało chmury na wysokości 15000 ft
Od 01 godzina 1800 UTC
Wiatr 9 kt od południowo-południowy zachód
Widzialność: 10 km
Przerywane chmury na wysokości 8000 ft

TAF: KLAF 312320Z 0100/0124 VRB03KT P6SM FEW250 FM011200 17005KT P6SM FEW150 FM011800 20009KT P6SM BKN080 AMD LTD TO CLD VIS AND WIND 0101/0113

Obserwacja i prognoza pogody dla ponad 4000 lotnisk (raport METAR i TAF).

Dostępne stacje oznaczono żółtymi i czerwonymi punktami na mapie.

Najedź kursorem aby zobaczyć nazwę stacji.

Kliknij aby zobaczyć obserwacje i prognozy pogody.

Aby zmienić mapę: kliknij na zielony przycisk z czarnym krzyżykiem, aby powiększyć; na zielony przycisk z myślnikiem, aby pomniejszyć; na zielone strzałki, aby przejść do map sąsiednich.


METAR-TAF: